Wetterdaten: Woche 26.09.16 - 02.10.16 (KW39)
Datum Zeit Temp. Aussen Temp. o. S. +5cm Feuchte Auss BlattFeu 1 Luftdruck Regen Sonnenschein Regendauer Solar Windben Empfang
26.09.2016 00:00 16,1 C 15,6 C 14,3 C 80 % 0 lf 1021,0 hPa 0,0 l/m 0,00 h 0,00 h 0 W/m 7,0 km/h (2 Bft) 95,80 %
26.09.2016 01:00 15,8 C 15,6 C 14,0 C 82 % 0 lf 1021,3 hPa 0,0 l/m 0,00 h 0,00 h 0 W/m 9,6 km/h (2 Bft) 94,25 %
26.09.2016 02:00 15,4 C 15,0 C 13,9 C 81 % 0 lf 1021,6 hPa 0,0 l/m 0,00 h 0,00 h 0 W/m 10,3 km/h (2 Bft) 97,57 %
26.09.2016 03:00 14,8 C 14,2 C 12,7 C 80 % 0 lf 1021,9 hPa 0,0 l/m 0,00 h 0,00 h 3 W/m 9,4 km/h (2 Bft) 96,04 %
26.09.2016 04:00 13,5 C 12,4 C 10,9 C 83 % 0 lf 1022,1 hPa 0,0 l/m 0,00 h 0,00 h 4 W/m 10,0 km/h (2 Bft) 96,11 %
26.09.2016 05:00 12,3 C 11,1 C 9,5 C 86 % 1 lf 1022,3 hPa 0,0 l/m 0,00 h 0,00 h 4 W/m 6,6 km/h (2 Bft) 96,00 %
26.09.2016 06:00 11,3 C 10,0 C 8,6 C 88 % 2 lf 1022,4 hPa 0,0 l/m 0,00 h 0,00 h 5 W/m 5,7 km/h (1 Bft) 94,66 %
26.09.2016 07:00 10,5 C 9,5 C 8,1 C 89 % 3 lf 1022,5 hPa 0,0 l/m 0,27 h 0,00 h 16 W/m 4,4 km/h (1 Bft) 95,80 %
26.09.2016 08:00 10,5 C 13,2 C 9,5 C 92 % 1 lf 1022,8 hPa 0,0 l/m 0,97 h 0,00 h 110 W/m 7,3 km/h (2 Bft) 97,73 %
26.09.2016 09:00 12,8 C 21,1 C 13,0 C 90 % 0 lf 1023,0 hPa 0,0 l/m 1,00 h 0,00 h 280 W/m 11,9 km/h (2 Bft) 91,89 %
26.09.2016 10:00 15,5 C 25,0 C 18,9 C 80 % 0 lf 1023,2 hPa 0,0 l/m 1,00 h 0,00 h 546 W/m 8,6 km/h (2 Bft) 98,36 %
26.09.2016 11:00 17,7 C 27,1 C 22,6 C 75 % 0 lf 1023,2 hPa 0,0 l/m 1,00 h 0,00 h 980 W/m 8,1 km/h (2 Bft) 98,56 %
26.09.2016 12:00 19,3 C 25,4 C 20,1 C 69 % 0 lf 1023,0 hPa 0,0 l/m 0,97 h 0,00 h 916 W/m 8,8 km/h (2 Bft) 92,17 %
26.09.2016 13:00 20,3 C 30,1 C 19,3 C 64 % 0 lf 1022,7 hPa 0,0 l/m 1,00 h 0,00 h 1014 W/m 7,1 km/h (2 Bft) 98,56 %
26.09.2016 14:00 21,0 C 26,3 C 19,1 C 59 % 0 lf 1022,4 hPa 0,0 l/m 0,77 h 0,00 h 457 W/m 7,0 km/h (2 Bft) 96,96 %
26.09.2016 15:00 21,0 C 24,7 C 19,5 C 57 % 0 lf 1022,2 hPa 0,0 l/m 0,80 h 0,00 h 338 W/m 7,3 km/h (2 Bft) 96,28 %
26.09.2016 16:00 20,4 C 23,1 C 19,3 C 55 % 0 lf 1022,2 hPa 0,0 l/m 0,63 h 0,00 h 226 W/m 6,9 km/h (2 Bft) 96,81 %
26.09.2016 17:00 19,7 C 21,2 C 18,7 C 57 % 0 lf 1022,1 hPa 0,0 l/m 0,50 h 0,00 h 151 W/m 6,7 km/h (2 Bft) 95,68 %
26.09.2016 18:00 18,7 C 18,0 C 16,3 C 64 % 0 lf 1022,4 hPa 0,0 l/m 0,13 h 0,00 h 57 W/m 7,3 km/h (2 Bft) 96,72 %
26.09.2016 19:00 17,1 C 15,4 C 13,4 C 65 % 0 lf 1022,9 hPa 0,0 l/m 0,00 h 0,00 h 12 W/m 5,0 km/h (1 Bft) 95,67 %
26.09.2016 20:00 15,4 C 13,5 C 11,7 C 71 % 0 lf 1023,3 hPa 0,0 l/m 0,00 h 0,00 h 5 W/m 1,2 km/h (1 Bft) 97,06 %
26.09.2016 21:00 14,2 C 12,9 C 11,2 C 76 % 0 lf 1023,3 hPa 0,0 l/m 0,00 h 0,00 h 5 W/m 1,1 km/h (1 Bft) 95,50 %
26.09.2016 22:00 13,4 C 12,4 C 11,1 C 81 % 0 lf 1023,3 hPa 0,0 l/m 0,00 h 0,00 h 0 W/m 2,3 km/h (1 Bft) 96,08 %
26.09.2016 23:00 13,0 C 12,2 C 11,1 C 84 % 0 lf 1023,3 hPa 0,0 l/m 0,00 h 0,00 h 0 W/m 1,1 km/h (0 Bft) 95,90 %
27.09.2016 00:00 12,7 C 11,8 C 10,4 C 85 % 1 lf 1023,4 hPa 0,0 l/m 0,00 h 0,00 h 5 W/m 0,0 km/h (0 Bft) 95,15 %
27.09.2016 01:00 12,2 C 10,9 C 9,5 C 87 % 1 lf 1023,3 hPa 0,0 l/m 0,00 h 0,00 h 5 W/m 0,0 km/h (0 Bft) 95,45 %
27.09.2016 02:00 11,4 C 9,8 C 8,4 C 88 % 7 lf 1023,3 hPa 0,0 l/m 0,00 h 0,00 h 4 W/m 0,6 km/h (0 Bft) 93,38 %
27.09.2016 03:00 10,6 C 9,4 C 8,0 C 89 % 15 lf 1023,6 hPa 0,0 l/m 0,00 h 0,00 h 5 W/m 2,0 km/h (1 Bft) 96,01 %
27.09.2016 04:00 10,1 C 9,1 C 7,8 C 90 % 15 lf 1023,8 hPa 0,0 l/m 0,00 h 0,00 h 5 W/m 1,8 km/h (1 Bft) 97,58 %
27.09.2016 05:00 9,7 C 8,5 C 7,2 C 91 % 15 lf 1023,9 hPa 0,0 l/m 0,00 h 0,00 h 5 W/m 0,3 km/h (0 Bft) 94,80 %
27.09.2016 06:00 9,1 C 7,9 C 6,6 C 92 % 15 lf 1024,3 hPa 0,0 l/m 0,00 h 0,00 h 0 W/m 0,7 km/h (0 Bft) 93,86 %
27.09.2016 07:00 8,5 C 7,4 C 6,1 C 93 % 15 lf 1024,7 hPa 0,0 l/m 0,33 h 0,00 h 30 W/m 1,1 km/h (1 Bft) 98,29 %
27.09.2016 08:00 8,5 C 10,3 C 7,4 C 94 % 15 lf 1025,2 hPa 0,0 l/m 1,00 h 0,00 h 100 W/m 3,8 km/h (1 Bft) 94,31 %
27.09.2016 09:00 11,2 C 19,8 C 10,7 C 96 % 13 lf 1025,5 hPa 0,0 l/m 1,00 h 0,00 h 269 W/m 6,2 km/h (2 Bft) 96,94 %
27.09.2016 10:00 14,5 C 24,9 C 18,5 C 93 % 0 lf 1025,5 hPa 0,0 l/m 1,00 h 0,00 h 404 W/m 5,7 km/h (1 Bft) 95,65 %
27.09.2016 11:00 17,6 C 28,2 C 22,2 C 77 % 0 lf 1025,8 hPa 0,0 l/m 1,00 h 0,00 h 542 W/m 6,4 km/h (2 Bft) 95,37 %
27.09.2016 12:00 19,8 C 28,9 C 20,8 C 66 % 0 lf 1025,6 hPa 0,0 l/m 0,97 h 0,00 h 610 W/m 7,9 km/h (2 Bft) 97,31 %
27.09.2016 13:00 21,5 C 28,4 C 19,8 C 60 % 0 lf 1025,5 hPa 0,0 l/m 1,00 h 0,00 h 981 W/m 8,7 km/h (2 Bft) 96,22 %
27.09.2016 14:00 22,4 C 29,6 C 20,4 C 56 % 0 lf 1025,1 hPa 0,0 l/m 1,00 h 0,00 h 790 W/m 12,4 km/h (3 Bft) 97,15 %
27.09.2016 15:00 22,5 C 27,9 C 20,6 C 55 % 0 lf 1024,8 hPa 0,0 l/m 1,00 h 0,00 h 499 W/m 12,2 km/h (2 Bft) 94,38 %
27.09.2016 16:00 23,0 C 29,1 C 20,4 C 52 % 0 lf 1024,6 hPa 0,0 l/m 1,00 h 0,00 h 366 W/m 10,3 km/h (2 Bft) 96,73 %
27.09.2016 17:00 22,9 C 28,3 C 19,3 C 54 % 0 lf 1024,4 hPa 0,0 l/m 1,00 h 0,00 h 212 W/m 8,0 km/h (2 Bft) 97,80 %
27.09.2016 18:00 22,0 C 21,0 C 16,4 C 58 % 0 lf 1024,6 hPa 0,0 l/m 0,30 h 0,00 h 46 W/m 5,5 km/h (1 Bft) 95,07 %
27.09.2016 19:00 19,1 C 16,3 C 12,5 C 67 % 0 lf 1024,8 hPa 0,0 l/m 0,00 h 0,00 h 6 W/m 1,3 km/h (1 Bft) 95,51 %
27.09.2016 20:00 16,5 C 14,2 C 11,7 C 77 % 1 lf 1024,9 hPa 0,0 l/m 0,00 h 0,00 h 3 W/m 0,7 km/h (0 Bft) 98,36 %
27.09.2016 21:00 14,7 C 13,0 C 10,8 C 82 % 2 lf 1025,2 hPa 0,0 l/m 0,00 h 0,00 h 4 W/m 0,2 km/h (0 Bft) 95,73 %
27.09.2016 22:00 13,5 C 12,4 C 10,3 C 86 % 2 lf 1025,4 hPa 0,0 l/m 0,00 h 0,00 h 5 W/m 2,8 km/h (1 Bft) 95,13 %
27.09.2016 23:00 13,0 C 13,9 C 11,2 C 88 % 1 lf 1025,3 hPa 0,0 l/m 0,00 h 0,00 h 5 W/m 9,7 km/h (2 Bft) 96,32 %
28.09.2016 00:00 13,9 C 14,4 C 11,4 C 79 % 0 lf 1025,1 hPa 0,0 l/m 0,00 h 0,00 h 5 W/m 7,7 km/h (2 Bft) 94,50 %
28.09.2016 01:00 14,1 C 14,0 C 11,1 C 75 % 0 lf 1024,9 hPa 0,0 l/m 0,00 h 0,00 h 5 W/m 9,2 km/h (2 Bft) 96,74 %
28.09.2016 02:00 14,2 C 14,2 C 12,0 C 74 % 0 lf 1024,6 hPa 0,0 l/m 0,00 h 0,00 h 5 W/m 9,8 km/h (2 Bft) 96,47 %
28.09.2016 03:00 14,2 C 14,5 C 12,3 C 71 % 0 lf 1024,5 hPa 0,0 l/m 0,00 h 0,00 h 5 W/m 10,4 km/h (2 Bft) 93,96 %
28.09.2016 04:00 14,9 C 15,5 C 13,6 C 69 % 0 lf 1024,4 hPa 0,0 l/m 0,00 h 0,00 h 5 W/m 14,1 km/h (3 Bft) 98,31 %
28.09.2016 05:00 15,4 C 15,4 C 13,3 C 67 % 0 lf 1024,0 hPa 0,0 l/m 0,00 h 0,00 h 5 W/m 14,6 km/h (3 Bft) 96,52 %
28.09.2016 06:00 15,4 C 15,4 C 13,3 C 68 % 0 lf 1023,6 hPa 0,0 l/m 0,00 h 0,00 h 0 W/m 15,1 km/h (3 Bft) 93,23 %
28.09.2016 07:00 15,2 C 15,3 C 13,2 C 70 % 0 lf 1023,7 hPa 0,0 l/m 0,00 h 0,00 h 12 W/m 14,6 km/h (3 Bft) 97,37 %
28.09.2016 08:00 15,2 C 15,5 C 13,9 C 74 % 0 lf 1024,2 hPa 0,0 l/m 0,03 h 0,00 h 34 W/m 13,3 km/h (3 Bft) 97,09 %
28.09.2016 09:00 16,0 C 16,7 C 15,6 C 79 % 0 lf 1024,5 hPa 0,0 l/m 0,00 h 0,00 h 92 W/m 18,7 km/h (3 Bft) 93,06 %
28.09.2016 10:00 16,9 C 18,3 C 17,3 C 83 % 0 lf 1024,6 hPa 0,0 l/m 0,13 h 0,00 h 173 W/m 21,2 km/h (4 Bft) 97,55 %
28.09.2016 11:00 18,1 C 20,7 C 19,5 C 83 % 0 lf 1024,5 hPa 0,0 l/m 0,83 h 0,00 h 331 W/m 22,6 km/h (4 Bft) 95,79 %
28.09.2016 12:00 19,6 C 24,7 C 20,7 C 77 % 0 lf 1024,2 hPa 0,0 l/m 0,87 h 0,00 h 544 W/m 29,1 km/h (5 Bft) 95,86 %
28.09.2016 13:00 21,2 C 26,6 C 21,7 C 71 % 0 lf 1024,0 hPa 0,0 l/m 0,97 h 0,00 h 568 W/m 25,0 km/h (4 Bft) 96,44 %
28.09.2016 14:00 22,5 C 28,8 C 22,0 C 65 % 0 lf 1023,4 hPa 0,0 l/m 1,00 h 0,00 h 771 W/m 27,6 km/h (4 Bft) 96,59 %
28.09.2016 15:00 22,6 C 25,5 C 22,4 C 63 % 0 lf 1023,2 hPa 0,0 l/m 1,00 h 0,00 h 427 W/m 23,9 km/h (4 Bft) 96,66 %
28.09.2016 16:00 22,9 C 28,3 C 21,2 C 62 % 0 lf 1023,0 hPa 0,0 l/m 1,00 h 0,00 h 406 W/m 25,3 km/h (4 Bft) 95,88 %
28.09.2016 17:00 22,5 C 24,1 C 20,4 C 59 % 0 lf 1023,0 hPa 0,0 l/m 1,00 h 0,00 h 197 W/m 25,3 km/h (4 Bft) 97,64 %
28.09.2016 18:00 21,3 C 21,4 C 19,1 C 62 % 0 lf 1023,1 hPa 0,0 l/m 0,97 h 0,00 h 102 W/m 15,1 km/h (3 Bft) 96,44 %
28.09.2016 19:00 20,4 C 19,6 C 17,5 C 64 % 0 lf 1023,0 hPa 0,0 l/m 0,13 h 0,00 h 43 W/m 11,3 km/h (2 Bft) 94,25 %
28.09.2016 20:00 19,5 C 19,0 C 17,1 C 69 % 0 lf 1022,8 hPa 0,0 l/m 0,00 h 0,00 h 0 W/m 13,4 km/h (3 Bft) 97,28 %
28.09.2016 21:00 19,2 C 18,9 C 16,9 C 72 % 0 lf 1022,5 hPa 0,0 l/m 0,00 h 0,00 h 0 W/m 14,6 km/h (3 Bft) 97,94 %
28.09.2016 22:00 18,9 C 18,9 C 16,8 C 76 % 0 lf 1022,3 hPa 0,0 l/m 0,00 h 0,00 h 0 W/m 16,6 km/h (3 Bft) 94,23 %
28.09.2016 23:00 18,6 C 18,3 C 16,3 C 77 % 0 lf 1021,9 hPa 0,0 l/m 0,00 h 0,00 h 0 W/m 16,1 km/h (3 Bft) 97,29 %
29.09.2016 00:00 18,2 C 17,9 C 16,0 C 79 % 0 lf 1021,7 hPa 0,0 l/m 0,00 h 0,00 h 0 W/m 15,5 km/h (3 Bft) 96,49 %
29.09.2016 01:00 17,9 C 17,5 C 15,4 C 81 % 0 lf 1021,5 hPa 0,0 l/m 0,00 h 0,00 h 0 W/m 12,0 km/h (2 Bft) 96,31 %
29.09.2016 02:00 17,4 C 16,8 C 14,6 C 83 % 0 lf 1021,1 hPa 0,0 l/m 0,00 h 0,00 h 0 W/m 10,6 km/h (2 Bft) 95,57 %
29.09.2016 03:00 16,8 C 16,5 C 14,4 C 86 % 0 lf 1020,8 hPa 0,0 l/m 0,00 h 0,00 h 0 W/m 11,7 km/h (2 Bft) 95,95 %
29.09.2016 04:00 16,6 C 16,2 C 14,1 C 87 % 1 lf 1020,0 hPa 0,0 l/m 0,00 h 0,00 h 0 W/m 11,2 km/h (2 Bft) 96,47 %
29.09.2016 05:00 16,3 C 16,1 C 14,1 C 89 % 1 lf 1019,2 hPa 0,0 l/m 0,00 h 0,00 h 0 W/m 13,6 km/h (3 Bft) 98,30 %
29.09.2016 06:00 16,3 C 16,1 C 14,0 C 89 % 1 lf 1018,6 hPa 0,0 l/m 0,00 h 0,00 h 0 W/m 14,7 km/h (3 Bft) 93,09 %
29.09.2016 07:00 15,9 C 15,6 C 13,4 C 90 % 1 lf 1017,9 hPa 0,0 l/m 0,27 h 0,00 h 37 W/m 12,7 km/h (3 Bft) 96,60 %
29.09.2016 08:00 16,1 C 18,2 C 14,8 C 91 % 1 lf 1017,6 hPa 0,0 l/m 1,00 h 0,00 h 150 W/m 18,9 km/h (3 Bft) 98,08 %
29.09.2016 09:00 17,7 C 22,9 C 17,2 C 86 % 0 lf 1017,5 hPa 0,0 l/m 1,00 h 0,00 h 316 W/m 22,0 km/h (4 Bft) 93,65 %
29.09.2016 10:00 18,5 C 19,8 C 18,1 C 83 % 0 lf 1017,0 hPa 0,0 l/m 0,37 h 0,00 h 179 W/m 25,7 km/h (4 Bft) 95,16 %
29.09.2016 11:00 18,9 C 20,8 C 19,4 C 81 % 0 lf 1016,4 hPa 0,0 l/m 0,67 h 0,00 h 269 W/m 32,7 km/h (5 Bft) 99,24 %
29.09.2016 12:00 19,8 C 24,1 C 20,4 C 77 % 0 lf 1015,7 hPa 0,0 l/m 0,63 h 0,00 h 370 W/m 31,0 km/h (5 Bft) 94,49 %
29.09.2016 13:00 21,0 C 25,2 C 20,7 C 69 % 0 lf 1015,1 hPa 0,0 l/m 0,80 h 0,00 h 480 W/m 35,5 km/h (5 Bft) 96,74 %
29.09.2016 14:00 21,5 C 24,2 C 21,7 C 66 % 0 lf 1014,4 hPa 0,0 l/m 0,73 h 0,00 h 343 W/m 32,8 km/h (5 Bft) 96,54 %
29.09.2016 15:00 21,5 C 24,5 C 21,2 C 67 % 0 lf 1013,7 hPa 0,0 l/m 0,83 h 0,00 h 343 W/m 30,0 km/h (5 Bft) 97,01 %
29.09.2016 16:00 21,3 C 22,0 C 21,1 C 67 % 0 lf 1013,4 hPa 0,0 l/m 0,33 h 0,00 h 182 W/m 31,0 km/h (5 Bft) 94,50 %
29.09.2016 17:00 20,7 C 21,1 C 20,0 C 68 % 0 lf 1013,1 hPa 0,0 l/m 0,00 h 0,00 h 83 W/m 29,4 km/h (5 Bft) 96,89 %
29.09.2016 18:00 20,4 C 20,4 C 19,0 C 69 % 0 lf 1012,8 hPa 0,0 l/m 0,00 h 0,00 h 22 W/m 29,9 km/h (5 Bft) 97,29 %
29.09.2016 19:00 19,8 C 19,6 C 18,3 C 72 % 0 lf 1012,9 hPa 0,0 l/m 0,00 h 0,00 h 25 W/m 24,1 km/h (4 Bft) 95,42 %
29.09.2016 20:00 19,4 C 19,1 C 17,9 C 75 % 0 lf 1012,8 hPa 0,0 l/m 0,00 h 0,00 h 0 W/m 29,0 km/h (5 Bft) 95,75 %
29.09.2016 21:00 18,7 C 18,4 C 16,7 C 80 % 1 lf 1013,0 hPa 0,0 l/m 0,00 h 0,07 h 0 W/m 24,3 km/h (4 Bft) 98,72 %
29.09.2016 22:00 17,6 C 16,4 C 15,1 C 85 % 10 lf 1013,6 hPa 1,2 l/m 0,00 h 0,57 h 0 W/m 23,7 km/h (4 Bft) 95,18 %
29.09.2016 23:00 15,1 C 13,9 C 13,0 C 92 % 15 lf 1013,7 hPa 0,0 l/m 0,00 h 0,03 h 0 W/m 17,8 km/h (3 Bft) 95,99 %
30.09.2016 00:00 14,5 C 13,9 C 12,8 C 93 % 15 lf 1013,6 hPa 0,0 l/m 0,00 h 0,00 h 0 W/m 16,0 km/h (3 Bft) 96,94 %
30.09.2016 01:00 14,3 C 14,0 C 12,8 C 93 % 12 lf 1013,3 hPa 0,0 l/m 0,00 h 0,00 h 0 W/m 15,9 km/h (3 Bft) 96,05 %
30.09.2016 02:00 14,3 C 14,4 C 12,6 C 93 % 1 lf 1013,2 hPa 0,0 l/m 0,00 h 0,00 h 0 W/m 14,8 km/h (3 Bft) 96,21 %
30.09.2016 03:00 14,2 C 14,2 C 12,8 C 93 % 1 lf 1012,7 hPa 0,0 l/m 0,00 h 0,00 h 0 W/m 12,2 km/h (2 Bft) 96,85 %
30.09.2016 04:00 14,2 C 13,9 C 12,4 C 93 % 1 lf 1012,5 hPa 0,0 l/m 0,00 h 0,00 h 0 W/m 11,0 km/h (2 Bft) 95,07 %
30.09.2016 05:00 14,1 C 13,7 C 12,0 C 94 % 2 lf 1012,4 hPa 0,0 l/m 0,00 h 0,00 h 0 W/m 10,8 km/h (2 Bft) 97,85 %
30.09.2016 06:00 13,7 C 13,3 C 11,8 C 94 % 2 lf 1012,5 hPa 0,0 l/m 0,00 h 0,00 h 0 W/m 12,1 km/h (2 Bft) 95,29 %
30.09.2016 07:00 13,5 C 13,3 C 11,7 C 94 % 2 lf 1012,6 hPa 0,0 l/m 0,00 h 0,00 h 18 W/m 11,4 km/h (2 Bft) 95,06 %
30.09.2016 08:00 13,6 C 14,0 C 12,4 C 95 % 1 lf 1013,0 hPa 0,0 l/m 0,60 h 0,00 h 77 W/m 13,1 km/h (3 Bft) 96,93 %
30.09.2016 09:00 14,1 C 14,9 C 13,4 C 95 % 1 lf 1013,4 hPa 0,0 l/m 0,00 h 0,00 h 115 W/m 12,2 km/h (2 Bft) 96,40 %
30.09.2016 10:00 14,9 C 16,5 C 14,9 C 94 % 0 lf 1013,6 hPa 0,0 l/m 0,33 h 0,00 h 171 W/m 14,4 km/h (3 Bft) 94,69 %
30.09.2016 11:00 15,8 C 18,5 C 16,7 C 88 % 0 lf 1013,8 hPa 0,0 l/m 0,47 h 0,00 h 291 W/m 18,0 km/h (3 Bft) 97,31 %
30.09.2016 12:00 16,9 C 19,7 C 17,9 C 81 % 0 lf 1014,0 hPa 0,0 l/m 0,83 h 0,00 h 340 W/m 22,5 km/h (4 Bft) 96,80 %
30.09.2016 13:00 17,4 C 19,4 C 18,2 C 74 % 0 lf 1014,0 hPa 0,0 l/m 0,70 h 0,00 h 306 W/m 22,0 km/h (4 Bft) 95,93 %
30.09.2016 14:00 17,6 C 20,2 C 18,0 C 71 % 0 lf 1013,9 hPa 0,0 l/m 0,80 h 0,00 h 311 W/m 19,6 km/h (3 Bft) 95,75 %
30.09.2016 15:00 18,2 C 23,0 C 17,3 C 66 % 0 lf 1013,7 hPa 0,0 l/m 0,73 h 0,00 h 400 W/m 17,8 km/h (3 Bft) 96,09 %
30.09.2016 16:00 18,9 C 24,3 C 17,1 C 60 % 0 lf 1013,5 hPa 0,0 l/m 0,90 h 0,00 h 359 W/m 16,9 km/h (3 Bft) 95,01 %
30.09.2016 17:00 18,7 C 22,2 C 16,3 C 59 % 0 lf 1013,4 hPa 0,0 l/m 1,00 h 0,00 h 217 W/m 13,5 km/h (3 Bft) 97,49 %
30.09.2016 18:00 17,6 C 17,1 C 14,3 C 63 % 0 lf 1013,2 hPa 0,0 l/m 0,97 h 0,00 h 82 W/m 7,6 km/h (2 Bft) 96,20 %
30.09.2016 19:00 15,9 C 14,1 C 11,5 C 69 % 0 lf 1013,2 hPa 0,0 l/m 0,07 h 0,00 h 34 W/m 5,7 km/h (1 Bft) 96,30 %
30.09.2016 20:00 14,2 C 13,0 C 10,5 C 76 % 0 lf 1013,5 hPa 0,0 l/m 0,00 h 0,00 h 0 W/m 4,9 km/h (1 Bft) 96,52 %
30.09.2016 21:00 13,0 C 12,2 C 10,0 C 82 % 0 lf 1013,4 hPa 0,0 l/m 0,00 h 0,00 h 0 W/m 3,9 km/h (1 Bft) 95,23 %
30.09.2016 22:00 12,4 C 12,2 C 10,7 C 86 % 0 lf 1013,2 hPa 0,0 l/m 0,00 h 0,00 h 0 W/m 3,0 km/h (1 Bft) 96,08 %
30.09.2016 23:00 12,4 C 12,4 C 10,8 C 88 % 0 lf 1012,7 hPa 0,0 l/m 0,00 h 0,00 h 0 W/m 5,2 km/h (1 Bft) 98,09 %
01.10.2016 00:00 12,5 C 12,9 C 11,4 C 88 % 0 lf 1012,3 hPa 0,0 l/m 0,00 h 0,07 h 0 W/m 5,5 km/h (1 Bft) 92,70 %
01.10.2016 01:00 12,8 C 12,3 C 10,7 C 89 % 1 lf 1011,7 hPa 0,2 l/m 0,00 h 0,97 h 0 W/m 6,5 km/h (2 Bft) 97,30 %
01.10.2016 02:00 12,5 C 11,8 C 10,6 C 91 % 12 lf 1011,2 hPa 0,0 l/m 0,00 h 0,33 h 0 W/m 3,8 km/h (1 Bft) 98,08 %
01.10.2016 03:00 12,2 C 11,7 C 10,6 C 93 % 14 lf 1010,5 hPa 0,2 l/m 0,00 h 0,37 h 0 W/m 6,0 km/h (2 Bft) 95,81 %
01.10.2016 04:00 12,2 C 12,0 C 10,6 C 94 % 3 lf 1009,9 hPa 0,0 l/m 0,00 h 0,30 h 0 W/m 6,8 km/h (2 Bft) 95,28 %
01.10.2016 05:00 12,4 C 12,2 C 10,6 C 95 % 9 lf 1009,3 hPa 0,2 l/m 0,00 h 0,73 h 0 W/m 5,3 km/h (1 Bft) 98,02 %
01.10.2016 06:00 12,5 C 12,2 C 11,0 C 96 % 15 lf 1008,8 hPa 0,0 l/m 0,00 h 0,00 h 0 W/m 6,8 km/h (2 Bft) 94,17 %
01.10.2016 07:00 12,6 C 12,4 C 11,1 C 97 % 10 lf 1008,9 hPa 0,0 l/m 0,17 h 0,00 h 13 W/m 6,1 km/h (2 Bft) 98,99 %
01.10.2016 08:00 12,4 C 12,8 C 11,1 C 97 % 2 lf 1008,7 hPa 0,0 l/m 0,00 h 0,03 h 43 W/m 6,3 km/h (2 Bft) 94,61 %
01.10.2016 09:00 12,3 C 13,1 C 11,6 C 96 % 2 lf 1008,3 hPa 0,0 l/m 0,00 h 0,23 h 91 W/m 9,4 km/h (2 Bft) 94,95 %
01.10.2016 10:00 12,9 C 14,2 C 12,7 C 95 % 1 lf 1008,3 hPa 0,0 l/m 0,00 h 0,00 h 163 W/m 13,1 km/h (3 Bft) 98,15 %
01.10.2016 11:00 14,2 C 17,5 C 16,4 C 93 % 0 lf 1008,2 hPa 0,0 l/m 0,93 h 0,00 h 373 W/m 12,8 km/h (3 Bft) 97,21 %
01.10.2016 12:00 16,2 C 20,2 C 18,2 C 85 % 0 lf 1008,0 hPa 0,0 l/m 1,00 h 0,00 h 439 W/m 14,2 km/h (3 Bft) 92,49 %
01.10.2016 13:00 16,8 C 20,1 C 18,0 C 82 % 0 lf 1007,5 hPa 0,0 l/m 0,93 h 0,00 h 391 W/m 9,7 km/h (2 Bft) 99,29 %
01.10.2016 14:00 17,3 C 19,2 C 18,2 C 77 % 0 lf 1007,3 hPa 0,0 l/m 0,17 h 0,00 h 231 W/m 9,4 km/h (2 Bft) 95,74 %
01.10.2016 15:00 17,8 C 21,9 C 18,9 C 74 % 0 lf 1007,0 hPa 0,0 l/m 0,83 h 0,00 h 368 W/m 9,3 km/h (2 Bft) 95,31 %
01.10.2016 16:00 18,9 C 23,4 C 18,2 C 69 % 0 lf 1006,7 hPa 0,0 l/m 0,90 h 0,00 h 321 W/m 12,1 km/h (2 Bft) 97,34 %
01.10.2016 17:00 19,1 C 21,6 C 17,3 C 69 % 0 lf 1006,5 hPa 0,0 l/m 0,77 h 0,00 h 200 W/m 13,6 km/h (3 Bft) 96,74 %
01.10.2016 18:00 17,7 C 15,3 C 14,0 C 76 % 11 lf 1006,6 hPa 0,6 l/m 0,57 h 0,23 h 47 W/m 9,5 km/h (2 Bft) 95,89 %
01.10.2016 19:00 15,9 C 14,4 C 12,7 C 84 % 10 lf 1006,9 hPa 0,0 l/m 0,03 h 0,00 h 18 W/m 8,6 km/h (2 Bft) 97,41 %
01.10.2016 20:00 14,5 C 13,1 C 12,1 C 88 % 12 lf 1007,7 hPa 2,6 l/m 0,00 h 0,72 h 0 W/m 14,3 km/h (3 Bft) 95,73 %
01.10.2016 21:00 13,1 C 11,8 C 10,6 C 91 % 15 lf 1007,8 hPa 0,0 l/m 0,00 h 0,00 h 0 W/m 4,8 km/h (1 Bft) 97,01 %
01.10.2016 22:00 12,1 C 11,2 C 10,0 C 93 % 15 lf 1008,0 hPa 0,0 l/m 0,00 h 0,07 h 0 W/m 5,0 km/h (1 Bft) 95,30 %
01.10.2016 23:00 11,8 C 11,4 C 10,4 C 95 % 15 lf 1008,5 hPa 0,8 l/m 0,00 h 0,47 h 0 W/m 12,0 km/h (2 Bft) 97,01 %
02.10.2016 00:00 11,5 C 10,8 C 9,7 C 95 % 15 lf 1008,6 hPa 0,0 l/m 0,00 h 0,00 h 5 W/m 9,7 km/h (2 Bft) 91,96 %
02.10.2016 01:00 11,0 C 10,4 C 9,0 C 95 % 15 lf 1008,7 hPa 0,2 l/m 0,00 h 0,00 h 5 W/m 11,6 km/h (2 Bft) 98,01 %
02.10.2016 02:00 10,5 C 9,8 C 8,7 C 95 % 15 lf 1008,7 hPa 0,0 l/m 0,00 h 0,00 h 5 W/m 12,0 km/h (2 Bft) 93,81 %
02.10.2016 03:00 10,2 C 9,8 C 8,3 C 95 % 15 lf 1008,7 hPa 0,0 l/m 0,00 h 0,00 h 4 W/m 10,8 km/h (2 Bft) 96,87 %
02.10.2016 04:00 10,2 C 9,6 C 8,4 C 95 % 15 lf 1008,6 hPa 0,0 l/m 0,00 h 0,00 h 5 W/m 10,7 km/h (2 Bft) 97,69 %
02.10.2016 05:00 10,2 C 9,6 C 8,3 C 95 % 15 lf 1008,5 hPa 0,0 l/m 0,00 h 0,00 h 0 W/m 12,4 km/h (3 Bft) 96,09 %
02.10.2016 06:00 10,0 C 9,4 C 7,9 C 95 % 15 lf 1008,6 hPa 0,0 l/m 0,00 h 0,00 h 0 W/m 11,0 km/h (2 Bft) 94,80 %
02.10.2016 07:00 9,6 C 9,4 C 7,9 C 95 % 15 lf 1008,7 hPa 0,2 l/m 0,10 h 0,07 h 35 W/m 13,0 km/h (3 Bft) 97,37 %
02.10.2016 08:00 9,9 C 10,0 C 8,8 C 95 % 5 lf 1008,9 hPa 0,0 l/m 0,30 h 0,00 h 44 W/m 13,5 km/h (3 Bft) 95,22 %
02.10.2016 09:00 10,5 C 10,7 C 9,4 C 93 % 7 lf 1009,1 hPa 0,0 l/m 0,00 h 0,33 h 39 W/m 15,1 km/h (3 Bft) 97,79 %
02.10.2016 10:00 11,0 C 11,5 C 9,9 C 94 % 7 lf 1009,6 hPa 0,0 l/m 0,00 h 0,07 h 76 W/m 17,6 km/h (3 Bft) 95,36 %
02.10.2016 11:00 11,9 C 13,5 C 11,9 C 91 % 0 lf 1009,8 hPa 0,0 l/m 0,17 h 0,03 h 199 W/m 23,8 km/h (4 Bft) 94,10 %
02.10.2016 12:00 12,9 C 15,7 C 13,3 C 87 % 0 lf 1010,1 hPa 0,0 l/m 0,40 h 0,00 h 283 W/m 23,8 km/h (4 Bft) 97,98 %
02.10.2016 13:00 14,0 C 16,4 C 14,5 C 81 % 0 lf 1010,3 hPa 0,0 l/m 0,57 h 0,00 h 312 W/m 27,8 km/h (4 Bft) 96,09 %
02.10.2016 14:00 13,8 C 14,5 C 13,2 C 81 % 1 lf 1010,5 hPa 0,0 l/m 0,10 h 0,10 h 146 W/m 23,4 km/h (4 Bft) 93,71 %
02.10.2016 15:00 13,9 C 15,7 C 13,9 C 79 % 0 lf 1010,5 hPa 0,0 l/m 0,30 h 0,00 h 202 W/m 25,7 km/h (4 Bft) 97,93 %
02.10.2016 16:00 14,8 C 15,4 C 13,9 C 76 % 3 lf 1010,6 hPa 0,0 l/m 0,17 h 0,23 h 145 W/m 29,7 km/h (5 Bft) 96,03 %
02.10.2016 17:00 12,9 C 12,1 C 10,9 C 88 % 15 lf 1011,1 hPa 0,4 l/m 0,03 h 0,70 h 69 W/m 23,6 km/h (4 Bft) 94,09 %
02.10.2016 18:00 12,4 C 11,8 C 10,8 C 94 % 15 lf 1011,5 hPa 0,0 l/m 0,40 h 0,47 h 40 W/m 18,3 km/h (3 Bft) 97,51 %
02.10.2016 19:00 12,5 C 12,2 C 11,0 C 95 % 14 lf 1012,4 hPa 0,4 l/m 0,00 h 0,53 h 29 W/m 21,4 km/h (4 Bft) 95,65 %
02.10.2016 20:00 12,5 C 12,2 C 10,9 C 96 % 15 lf 1013,4 hPa 0,0 l/m 0,00 h 0,30 h 0 W/m 20,1 km/h (4 Bft) 96,44 %
02.10.2016 21:00 12,4 C 12,2 C 11,1 C 96 % 15 lf 1014,0 hPa 0,0 l/m 0,00 h 0,00 h 0 W/m 24,8 km/h (4 Bft) 95,87 %
02.10.2016 22:00 12,3 C 12,0 C 10,7 C 94 % 4 lf 1014,8 hPa 0,0 l/m 0,00 h 0,00 h 0 W/m 24,1 km/h (4 Bft) 95,80 %
02.10.2016 23:00 12,4 C 12,4 C 10,8 C 91 % 1 lf 1015,5 hPa 0,0 l/m 0,00 h 0,00 h 0 W/m 26,4 km/h (4 Bft) 96,94 %
Min-Datum _ 27.09.16 27.09.16 27.09.16 27.09.16 26.09.16 01.10.16 - - - - 26.09.16 02.10.16
_ Min-Zeit 08:02 07:08 06:50 16:14 00:00 17:00 - - - - 07:36 00:02
Minimum _ 8,2 C 7,2 C 6,1 C 51 % 0 lf 1006,4 hPa - - - - 0,0 km/h (0 Bft) 11,11 %
Max-Datum _ 27.09.16 26.09.16 26.09.16 27.09.16 27.09.16 27.09.16 01.10.16 26.09.16 29.09.16 27.09.16 29.09.16 26.09.16
_ Max-Zeit 16:34 13:34 11:46 09:34 03:04 11:24 20:24 07:44 21:16 14:20 13:26 00:20
Maximum _ 23,2 C 33,9 C 23,9 C 97 % 15 lf 1025,9 hPa 2,6 l/m 0,03 h 0,03 h 1269 W/m 52,3 km/h
W-SW (7 Bft)
100,00 %
Durchschnitt _ 15,6 C 16,7 C 14,1 C 81 % 3 lf 1017,1 hPa #7,0 l/m #50:26 h #8:01 h 200 W/m 13,0 km/h (3 Bft) 96,12 %
© 2016 W. Hausmann